Pocahontas, Mississippi
Current Conditions -  °F | °C
As of 11:53 AM on Friday 24 Oct 2014 (Local Time) from KHKS Reporting Station
Clear Clear  
Wind Chill: 68°   Ceiling: Unl
Heat Index: 68°   Visibility: 10mi
Dew Point: 43°   Wind: 8mph
Humidity: 40%   Direction: 320°NW
Pressure: 30.14"   Gusts: NA
Location:  32.47°N, 90.29°W
Report Text: KHKS 241653Z 32007KT 10SM CLR 20/06 A3014 RMK AO2 SLP201 T02000061
Loading
Personal Weather Stations






























Interactive Weather Map
Tropical Storm Tracking
New forecast layout! Learn more

10-Day Weather Forecast

Advertisements
Track Severe Weather on mobile